Belden, CA (95915)

12:51 PM PST on March 06, 2015 (GMT -0800)
Magaliaweather.com | Change Station
CLOSE
Current Station
Personal Weather Station
Location: Magalia, CA
Elevation: 2600 ft
Nearby Weather Stations

Elev 2600 ft 39.84 °N, 121.61 °W | Updated 5 seconds ago

Clear
Clear
67.5 °F
Feels Like 67.5 °F
N
4.0
Wind Variable Wind from SW
Gusts 5.0 mph

Today
High -- | Low -- °F
--% Chance of Precip.
Yesterday
High -- | Low -- °F
Precip. -- in
6:30 AM 6:02 PM
Full, 99% visible
Pressure 30.25 in
Visibility 10.0 miles
Clouds Clear
Dew Point 40 °F
Humidity 37%
Rainfall in
Snow Depth Not available.
UV 6 out of 12
Pollen 8.40 out of 12
Air Quality Not available.
Flu Activity Not available.
METAR KRBL 061954Z AUTO 36011KT 10SM CLR 22/01 A3025 RMK AO2 SLP241 T02220006

More Conditions Fewer Conditions

Pressure 30.25 in
Visibility 10.0 miles
Clouds Clear
Dew Point 40 °F
Humidity 37%
Rainfall in
Snow Depth Not available.
UV 6 out of 12
Pollen 8.40 out of 12
Air Quality Not available.
Flu Activity Not available.
METAR KRBL 061954Z AUTO 36011KT 10SM CLR 22/01 A3025 RMK AO2 SLP241 T02220006

More Conditions Fewer Conditions

10-Day Weather Forecast

Almanac

Astronomy

Mar. 06, 2015 Rise Set
Actual Time
Civil Twilight
Nautical Twilight
Astronomical Twilight
Moon
Length of Visible Light
Length of Day
Tomorrow will be .
, % of the Moon is Illuminated

Today's Extremes

State Highs State Lows

Community

WunderPhotos

Upload Photos

1,803,389 photos uploaded!

WunderBlogs® & News

Nearby

Air Quality

  Air Quality AQ Index Pollutant
Not available.

Snow Depth

Station Depth Elevation

Earthquake Activity

City Distance Mag. Time & Date
Minimum magnitude displayed is 2.5.

Coastal Water Temperatures

Place Temperature

Nearby Weather Stations